Portada
METAR-TAF:

METAR-TAF

Aeropuertos :

Karachi, Pakistán

Aeropuerto Internacional Jinnah

latitud: 24-54N, longitud: 067-08E, altitud: 21 m

Observación

El informe se hizo hace 23 minutos, a las 14:55 UTC
Viento 5 kt del oeste-suroeste
Temperatura 19°C
Humedad 64%
Presión 1015 hPa
Visibilidad: 6000 m

METAR: OPKC 111455Z 24005KT 6000 NSC 19/12 Q1015 NOSIG

Hora: 20:18 (15:18 UTC)

Pronóstico

El informe se hizo hace 5 horas y 48 minutos, a las 09:30 UTC
Pronóstico válido del 11 a las 12 UTC al 12 a las 18 UTC
Viento 8 kt del oeste
Visibilidad: 6000 m
A partir de las 11 a las 2000 UTC
Viento 10 kt del norte-noroeste
Visibilidad: 6000 m
Temporalmente
del 12 a las 01 UTC al 12 a las 05 UTC
Viento 7 kt del norte-noroeste
Visibilidad: 4000 m
calima
A partir de las 12 a las 0600 UTC
Viento 5 kt del norte-noroeste
Visibilidad: 6000 m

TAF: OPKC 110930Z 1112/1218 26008KT 6000 NSC FM112000Z 33010KT 6000 NSC TEMPO 1201/1205 34007KT 4000 HZ NSC FM120600Z 33005KT 6000 NSC

Observaciones y pronósticos meteorológicos de más de 4000 aeropuertos (mensajes METAR y TAF).

Los puntos amarillos y rojos representan las estaciones disponibles.

Ponga el ratón en el punto deseado para ver el nombre de la estación.

Haga clic para ver las observaciones y los pronósticos meteorológicos.

Para cambiar el mapa : haga clic en los botones verdes con una cruz de color negro para hacer un zoom, en el botón verde con un guión para alejar o en las flechas verdes para mapas adyacentes.


METAR-TAF: